sensor_id;sensor_type;location;lat;lon;timestamp;P1;durP1;ratioP1;P2;durP2;ratioP2
11988;SDS011;6054;50.966;7.094;2023-09-07T00:00:32;5.05;;;4.55;;
11988;SDS011;6054;50.966;7.094;2023-09-07T00:02:58;4.93;;;3.85;;
11988;SDS011;6054;50.966;7.094;2023-09-07T00:05:26;4.00;;;3.60;;
11988;SDS011;6054;50.966;7.094;2023-09-07T00:07:53;5.25;;;3.60;;
11988;SDS011;6054;50.966;7.094;2023-09-07T00:10:21;5.18;;;3.88;;
11988;SDS011;6054;50.966;7.094;2023-09-07T00:12:49;3.83;;;3.53;;
11988;SDS011;6054;50.966;7.094;2023-09-07T00:15:16;4.97;;;3.90;;
11988;SDS011;6054;50.966;7.094;2023-09-07T00:17:44;3.75;;;3.50;;
11988;SDS011;6054;50.966;7.094;2023-09-07T00:20:11;3.97;;;3.50;;
11988;SDS011;6054;50.966;7.094;2023-09-07T00:22:39;8.02;;;3.97;;
11988;SDS011;6054;50.966;7.094;2023-09-07T00:25:06;4.55;;;3.83;;
11988;SDS011;6054;50.966;7.094;2023-09-07T00:27:34;5.68;;;3.83;;
11988;SDS011;6054;50.966;7.094;2023-09-07T00:30:02;4.95;;;3.63;;
11988;SDS011;6054;50.966;7.094;2023-09-07T00:32:31;7.28;;;3.83;;
11988;SDS011;6054;50.966;7.094;2023-09-07T00:34:58;5.05;;;4.07;;
11988;SDS011;6054;50.966;7.094;2023-09-07T00:37:25;5.68;;;3.83;;
11988;SDS011;6054;50.966;7.094;2023-09-07T00:39:51;4.18;;;3.72;;
11988;SDS011;6054;50.966;7.094;2023-09-07T00:42:18;4.15;;;3.75;;
11988;SDS011;6054;50.966;7.094;2023-09-07T00:44:45;4.55;;;3.65;;
11988;SDS011;6054;50.966;7.094;2023-09-07T00:47:14;6.43;;;3.85;;
11988;SDS011;6054;50.966;7.094;2023-09-07T00:49:41;4.00;;;3.45;;
11988;SDS011;6054;50.966;7.094;2023-09-07T00:52:08;4.20;;;3.53;;
11988;SDS011;6054;50.966;7.094;2023-09-07T00:54:35;4.75;;;3.55;;
11988;SDS011;6054;50.966;7.094;2023-09-07T00:57:03;3.85;;;3.40;;
11988;SDS011;6054;50.966;7.094;2023-09-07T00:59:31;3.90;;;3.60;;
11988;SDS011;6054;50.966;7.094;2023-09-07T01:01:58;4.50;;;3.50;;
11988;SDS011;6054;50.966;7.094;2023-09-07T01:04:26;4.32;;;3.90;;
11988;SDS011;6054;50.966;7.094;2023-09-07T01:06:56;3.80;;;3.60;;
11988;SDS011;6054;50.966;7.094;2023-09-07T01:09:26;4.78;;;3.60;;
11988;SDS011;6054;50.966;7.094;2023-09-07T01:11:56;4.40;;;3.90;;
11988;SDS011;6054;50.966;7.094;2023-09-07T01:14:23;4.28;;;3.85;;
11988;SDS011;6054;50.966;7.094;2023-09-07T01:16:50;6.32;;;3.20;;
11988;SDS011;6054;50.966;7.094;2023-09-07T01:19:16;6.03;;;3.63;;
11988;SDS011;6054;50.966;7.094;2023-09-07T01:21:44;4.38;;;3.75;;
11988;SDS011;6054;50.966;7.094;2023-09-07T01:24:12;4.35;;;3.95;;
11988;SDS011;6054;50.966;7.094;2023-09-07T01:26:41;3.75;;;3.45;;
11988;SDS011;6054;50.966;7.094;2023-09-07T01:29:08;5.30;;;3.95;;
11988;SDS011;6054;50.966;7.094;2023-09-07T01:31:35;4.00;;;3.55;;
11988;SDS011;6054;50.966;7.094;2023-09-07T01:34:03;6.10;;;3.55;;
11988;SDS011;6054;50.966;7.094;2023-09-07T01:36:31;4.10;;;3.63;;
11988;SDS011;6054;50.966;7.094;2023-09-07T01:38:59;4.70;;;3.50;;
11988;SDS011;6054;50.966;7.094;2023-09-07T01:41:26;3.95;;;3.47;;
11988;SDS011;6054;50.966;7.094;2023-09-07T01:43:54;7.95;;;3.60;;
11988;SDS011;6054;50.966;7.094;2023-09-07T01:46:20;3.92;;;3.55;;
11988;SDS011;6054;50.966;7.094;2023-09-07T01:48:47;3.67;;;3.28;;
11988;SDS011;6054;50.966;7.094;2023-09-07T01:51:14;5.97;;;3.90;;
11988;SDS011;6054;50.966;7.094;2023-09-07T01:53:41;4.03;;;3.60;;
11988;SDS011;6054;50.966;7.094;2023-09-07T01:56:09;4.47;;;3.10;;
11988;SDS011;6054;50.966;7.094;2023-09-07T01:58:35;3.72;;;3.42;;
11988;SDS011;6054;50.966;7.094;2023-09-07T02:01:02;7.13;;;3.38;;
11988;SDS011;6054;50.966;7.094;2023-09-07T02:03:29;5.53;;;3.65;;
11988;SDS011;6054;50.966;7.094;2023-09-07T02:05:55;3.58;;;3.35;;
11988;SDS011;6054;50.966;7.094;2023-09-07T02:08:22;7.97;;;3.60;;
11988;SDS011;6054;50.966;7.094;2023-09-07T02:10:49;3.42;;;3.10;;
11988;SDS011;6054;50.966;7.094;2023-09-07T02:13:17;3.83;;;3.53;;
11988;SDS011;6054;50.966;7.094;2023-09-07T02:15:44;4.50;;;3.50;;
11988;SDS011;6054;50.966;7.094;2023-09-07T02:18:10;4.25;;;3.83;;
11988;SDS011;6054;50.966;7.094;2023-09-07T02:20:37;4.00;;;3.60;;
11988;SDS011;6054;50.966;7.094;2023-09-07T02:23:04;3.92;;;3.63;;
11988;SDS011;6054;50.966;7.094;2023-09-07T02:25:31;4.72;;;3.88;;
11988;SDS011;6054;50.966;7.094;2023-09-07T02:27:59;4.10;;;3.50;;
11988;SDS011;6054;50.966;7.094;2023-09-07T02:30:27;3.90;;;3.50;;
11988;SDS011;6054;50.966;7.094;2023-09-07T02:32:54;6.32;;;3.58;;
11988;SDS011;6054;50.966;7.094;2023-09-07T02:35:21;4.50;;;3.38;;
11988;SDS011;6054;50.966;7.094;2023-09-07T02:37:47;7.80;;;3.80;;
11988;SDS011;6054;50.966;7.094;2023-09-07T02:40:14;4.00;;;3.70;;
11988;SDS011;6054;50.966;7.094;2023-09-07T02:42:41;7.15;;;3.58;;
11988;SDS011;6054;50.966;7.094;2023-09-07T02:45:10;4.00;;;3.30;;
11988;SDS011;6054;50.966;7.094;2023-09-07T02:47:39;4.28;;;3.55;;
11988;SDS011;6054;50.966;7.094;2023-09-07T02:50:06;4.07;;;3.67;;
11988;SDS011;6054;50.966;7.094;2023-09-07T02:52:33;3.70;;;3.35;;
11988;SDS011;6054;50.966;7.094;2023-09-07T02:54:59;4.05;;;3.75;;
11988;SDS011;6054;50.966;7.094;2023-09-07T02:57:26;7.32;;;3.45;;
11988;SDS011;6054;50.966;7.094;2023-09-07T02:59:53;4.50;;;3.78;;
11988;SDS011;6054;50.966;7.094;2023-09-07T03:02:20;4.72;;;3.90;;
11988;SDS011;6054;50.966;7.094;2023-09-07T03:04:52;5.03;;;3.70;;
11988;SDS011;6054;50.966;7.094;2023-09-07T03:07:19;3.90;;;3.60;;
11988;SDS011;6054;50.966;7.094;2023-09-07T03:09:46;4.45;;;3.55;;
11988;SDS011;6054;50.966;7.094;2023-09-07T03:12:13;4.68;;;4.18;;
11988;SDS011;6054;50.966;7.094;2023-09-07T03:14:42;5.22;;;3.60;;
11988;SDS011;6054;50.966;7.094;2023-09-07T03:17:09;6.90;;;4.38;;
11988;SDS011;6054;50.966;7.094;2023-09-07T03:19:36;6.82;;;3.70;;
11988;SDS011;6054;50.966;7.094;2023-09-07T03:22:05;4.07;;;3.78;;
11988;SDS011;6054;50.966;7.094;2023-09-07T03:24:31;5.18;;;4.10;;
11988;SDS011;6054;50.966;7.094;2023-09-07T03:26:58;4.28;;;3.65;;
11988;SDS011;6054;50.966;7.094;2023-09-07T03:29:25;4.78;;;3.72;;
11988;SDS011;6054;50.966;7.094;2023-09-07T03:31:52;5.97;;;4.22;;
11988;SDS011;6054;50.966;7.094;2023-09-07T03:34:18;5.45;;;3.83;;
11988;SDS011;6054;50.966;7.094;2023-09-07T03:36:46;4.10;;;3.63;;
11988;SDS011;6054;50.966;7.094;2023-09-07T03:39:14;3.70;;;3.40;;
11988;SDS011;6054;50.966;7.094;2023-09-07T03:41:40;6.93;;;3.70;;
11988;SDS011;6054;50.966;7.094;2023-09-07T03:44:07;5.03;;;3.85;;
11988;SDS011;6054;50.966;7.094;2023-09-07T03:46:34;4.30;;;3.90;;
11988;SDS011;6054;50.966;7.094;2023-09-07T03:49:00;4.25;;;3.58;;
11988;SDS011;6054;50.966;7.094;2023-09-07T03:51:27;3.80;;;3.50;;
11988;SDS011;6054;50.966;7.094;2023-09-07T03:53:54;7.93;;;3.97;;
11988;SDS011;6054;50.966;7.094;2023-09-07T03:56:22;4.00;;;3.70;;
11988;SDS011;6054;50.966;7.094;2023-09-07T03:58:49;4.72;;;3.72;;
11988;SDS011;6054;50.966;7.094;2023-09-07T04:01:16;5.75;;;3.80;;
11988;SDS011;6054;50.966;7.094;2023-09-07T04:03:42;3.60;;;3.30;;
11988;SDS011;6054;50.966;7.094;2023-09-07T04:06:09;4.43;;;3.30;;
11988;SDS011;6054;50.966;7.094;2023-09-07T04:08:36;4.47;;;3.20;;
11988;SDS011;6054;50.966;7.094;2023-09-07T04:11:03;6.60;;;3.80;;
11988;SDS011;6054;50.966;7.094;2023-09-07T04:13:32;4.07;;;3.28;;
11988;SDS011;6054;50.966;7.094;2023-09-07T04:15:59;5.20;;;3.38;;
11988;SDS011;6054;50.966;7.094;2023-09-07T04:18:25;4.82;;;3.50;;
11988;SDS011;6054;50.966;7.094;2023-09-07T04:20:52;5.20;;;3.70;;
11988;SDS011;6054;50.966;7.094;2023-09-07T04:23:19;4.57;;;3.28;;
11988;SDS011;6054;50.966;7.094;2023-09-07T04:25:46;4.00;;;3.30;;
11988;SDS011;6054;50.966;7.094;2023-09-07T04:28:12;5.90;;;4.00;;
11988;SDS011;6054;50.966;7.094;2023-09-07T04:30:41;5.20;;;3.53;;
11988;SDS011;6054;50.966;7.094;2023-09-07T04:33:08;5.20;;;3.22;;
11988;SDS011;6054;50.966;7.094;2023-09-07T04:35:34;4.78;;;3.85;;
11988;SDS011;6054;50.966;7.094;2023-09-07T04:38:01;7.30;;;3.53;;
11988;SDS011;6054;50.966;7.094;2023-09-07T04:40:28;4.50;;;3.45;;
11988;SDS011;6054;50.966;7.094;2023-09-07T04:42:54;3.33;;;3.13;;
11988;SDS011;6054;50.966;7.094;2023-09-07T04:45:21;5.20;;;3.35;;
11988;SDS011;6054;50.966;7.094;2023-09-07T04:47:50;3.85;;;3.20;;
11988;SDS011;6054;50.966;7.094;2023-09-07T04:50:17;6.85;;;3.35;;
11988;SDS011;6054;50.966;7.094;2023-09-07T04:52:43;4.82;;;3.78;;
11988;SDS011;6054;50.966;7.094;2023-09-07T04:55:10;5.55;;;3.45;;
11988;SDS011;6054;50.966;7.094;2023-09-07T04:57:37;4.32;;;3.38;;
11988;SDS011;6054;50.966;7.094;2023-09-07T05:00:04;5.45;;;3.45;;
11988;SDS011;6054;50.966;7.094;2023-09-07T05:02:32;7.82;;;3.90;;
11988;SDS011;6054;50.966;7.094;2023-09-07T05:05:05;4.03;;;3.63;;
11988;SDS011;6054;50.966;7.094;2023-09-07T05:07:32;6.70;;;3.55;;
11988;SDS011;6054;50.966;7.094;2023-09-07T05:09:59;4.05;;;3.28;;
11988;SDS011;6054;50.966;7.094;2023-09-07T05:12:25;6.65;;;3.60;;
11988;SDS011;6054;50.966;7.094;2023-09-07T05:14:52;3.72;;;3.42;;
11988;SDS011;6054;50.966;7.094;2023-09-07T05:17:19;3.47;;;3.22;;
11988;SDS011;6054;50.966;7.094;2023-09-07T05:19:46;3.83;;;3.45;;
11988;SDS011;6054;50.966;7.094;2023-09-07T05:22:14;3.63;;;3.33;;
11988;SDS011;6054;50.966;7.094;2023-09-07T05:24:42;3.92;;;3.60;;
11988;SDS011;6054;50.966;7.094;2023-09-07T05:27:11;3.70;;;3.28;;
11988;SDS011;6054;50.966;7.094;2023-09-07T05:29:38;3.92;;;3.30;;
11988;SDS011;6054;50.966;7.094;2023-09-07T05:32:05;5.30;;;3.33;;
11988;SDS011;6054;50.966;7.094;2023-09-07T05:34:34;3.72;;;3.28;;
11988;SDS011;6054;50.966;7.094;2023-09-07T05:37:01;5.97;;;3.70;;
11988;SDS011;6054;50.966;7.094;2023-09-07T05:39:29;5.22;;;3.25;;
11988;SDS011;6054;50.966;7.094;2023-09-07T05:41:55;4.57;;;3.20;;
11988;SDS011;6054;50.966;7.094;2023-09-07T05:44:22;3.55;;;3.28;;
11988;SDS011;6054;50.966;7.094;2023-09-07T05:46:49;5.20;;;3.47;;
11988;SDS011;6054;50.966;7.094;2023-09-07T05:49:16;3.40;;;3.20;;
11988;SDS011;6054;50.966;7.094;2023-09-07T05:51:42;3.75;;;3.05;;
11988;SDS011;6054;50.966;7.094;2023-09-07T05:54:09;4.50;;;3.17;;
11988;SDS011;6054;50.966;7.094;2023-09-07T05:56:37;7.18;;;3.70;;
11988;SDS011;6054;50.966;7.094;2023-09-07T05:59:04;4.13;;;3.47;;
11988;SDS011;6054;50.966;7.094;2023-09-07T06:01:31;6.70;;;3.22;;
11988;SDS011;6054;50.966;7.094;2023-09-07T06:03:58;3.90;;;3.28;;
11988;SDS011;6054;50.966;7.094;2023-09-07T06:06:25;5.00;;;3.50;;
11988;SDS011;6054;50.966;7.094;2023-09-07T06:08:52;5.22;;;3.53;;
11988;SDS011;6054;50.966;7.094;2023-09-07T06:11:18;3.95;;;3.63;;
11988;SDS011;6054;50.966;7.094;2023-09-07T06:13:46;3.97;;;3.65;;
11988;SDS011;6054;50.966;7.094;2023-09-07T06:16:14;4.95;;;3.78;;
11988;SDS011;6054;50.966;7.094;2023-09-07T06:18:41;7.15;;;3.20;;
11988;SDS011;6054;50.966;7.094;2023-09-07T06:21:07;4.93;;;3.28;;
11988;SDS011;6054;50.966;7.094;2023-09-07T06:23:34;3.80;;;3.50;;
11988;SDS011;6054;50.966;7.094;2023-09-07T06:26:01;4.93;;;3.63;;
11988;SDS011;6054;50.966;7.094;2023-09-07T06:28:28;4.78;;;3.38;;
11988;SDS011;6054;50.966;7.094;2023-09-07T06:30:56;3.97;;;3.35;;
11988;SDS011;6054;50.966;7.094;2023-09-07T06:33:22;4.88;;;3.20;;
11988;SDS011;6054;50.966;7.094;2023-09-07T06:35:49;3.70;;;3.40;;
11988;SDS011;6054;50.966;7.094;2023-09-07T06:38:16;3.90;;;3.50;;
11988;SDS011;6054;50.966;7.094;2023-09-07T06:40:46;3.95;;;3.00;;
11988;SDS011;6054;50.966;7.094;2023-09-07T06:43:14;5.07;;;3.08;;
11988;SDS011;6054;50.966;7.094;2023-09-07T06:45:40;3.95;;;3.60;;
11988;SDS011;6054;50.966;7.094;2023-09-07T06:48:08;8.10;;;3.83;;
11988;SDS011;6054;50.966;7.094;2023-09-07T06:50:35;3.55;;;3.25;;
11988;SDS011;6054;50.966;7.094;2023-09-07T06:53:02;4.70;;;3.83;;
11988;SDS011;6054;50.966;7.094;2023-09-07T06:55:29;5.38;;;3.70;;
11988;SDS011;6054;50.966;7.094;2023-09-07T06:57:56;3.55;;;3.25;;
11988;SDS011;6054;50.966;7.094;2023-09-07T07:00:22;5.20;;;3.35;;
11988;SDS011;6054;50.966;7.094;2023-09-07T07:02:49;4.10;;;3.60;;
11988;SDS011;6054;50.966;7.094;2023-09-07T07:05:17;3.85;;;3.55;;
11988;SDS011;6054;50.966;7.094;2023-09-07T07:07:45;6.50;;;3.75;;
11988;SDS011;6054;50.966;7.094;2023-09-07T07:10:12;5.65;;;3.65;;
11988;SDS011;6054;50.966;7.094;2023-09-07T07:12:39;7.47;;;3.80;;
11988;SDS011;6054;50.966;7.094;2023-09-07T07:15:06;4.82;;;3.45;;
11988;SDS011;6054;50.966;7.094;2023-09-07T07:17:33;4.07;;;3.67;;
11988;SDS011;6054;50.966;7.094;2023-09-07T07:20:00;3.92;;;3.42;;
11988;SDS011;6054;50.966;7.094;2023-09-07T07:22:28;5.13;;;4.55;;
11988;SDS011;6054;50.966;7.094;2023-09-07T07:24:57;5.22;;;4.18;;
11988;SDS011;6054;50.966;7.094;2023-09-07T07:27:30;10.45;;;6.43;;
11988;SDS011;6054;50.966;7.094;2023-09-07T07:29:57;9.70;;;5.32;;
11988;SDS011;6054;50.966;7.094;2023-09-07T07:32:24;10.23;;;7.38;;
11988;SDS011;6054;50.966;7.094;2023-09-07T07:34:50;6.38;;;5.75;;
11988;SDS011;6054;50.966;7.094;2023-09-07T07:37:17;7.18;;;3.90;;
11988;SDS011;6054;50.966;7.094;2023-09-07T07:39:45;4.20;;;3.75;;
11988;SDS011;6054;50.966;7.094;2023-09-07T07:42:12;4.57;;;3.88;;
11988;SDS011;6054;50.966;7.094;2023-09-07T07:44:39;4.95;;;3.80;;
11988;SDS011;6054;50.966;7.094;2023-09-07T07:47:05;4.55;;;3.58;;
11988;SDS011;6054;50.966;7.094;2023-09-07T07:49:32;3.90;;;3.40;;
11988;SDS011;6054;50.966;7.094;2023-09-07T07:51:59;5.32;;;3.30;;
11988;SDS011;6054;50.966;7.094;2023-09-07T07:54:26;5.00;;;3.70;;
11988;SDS011;6054;50.966;7.094;2023-09-07T07:56:55;3.83;;;3.00;;
11988;SDS011;6054;50.966;7.094;2023-09-07T07:59:22;7.25;;;3.28;;
11988;SDS011;6054;50.966;7.094;2023-09-07T08:01:49;6.85;;;3.15;;
11988;SDS011;6054;50.966;7.094;2023-09-07T08:04:15;3.90;;;3.25;;
11988;SDS011;6054;50.966;7.094;2023-09-07T08:06:42;3.38;;;2.85;;
11988;SDS011;6054;50.966;7.094;2023-09-07T08:09:09;4.07;;;3.20;;
11988;SDS011;6054;50.966;7.094;2023-09-07T08:11:35;5.50;;;2.83;;
11988;SDS011;6054;50.966;7.094;2023-09-07T08:14:04;3.88;;;3.40;;
11988;SDS011;6054;50.966;7.094;2023-09-07T08:16:31;4.13;;;3.00;;
11988;SDS011;6054;50.966;7.094;2023-09-07T08:18:58;4.05;;;3.10;;
11988;SDS011;6054;50.966;7.094;2023-09-07T08:21:25;7.65;;;3.70;;
11988;SDS011;6054;50.966;7.094;2023-09-07T08:23:51;3.58;;;3.28;;
11988;SDS011;6054;50.966;7.094;2023-09-07T08:26:19;3.75;;;3.25;;
11988;SDS011;6054;50.966;7.094;2023-09-07T08:28:46;3.70;;;3.40;;
11988;SDS011;6054;50.966;7.094;2023-09-07T08:31:14;2.85;;;2.65;;
11988;SDS011;6054;50.966;7.094;2023-09-07T08:33:47;3.75;;;3.08;;
11988;SDS011;6054;50.966;7.094;2023-09-07T08:36:15;5.53;;;3.17;;
11988;SDS011;6054;50.966;7.094;2023-09-07T08:38:42;3.80;;;3.13;;
11988;SDS011;6054;50.966;7.094;2023-09-07T08:41:09;10.50;;;3.15;;
11988;SDS011;6054;50.966;7.094;2023-09-07T08:43:39;3.78;;;3.22;;
11988;SDS011;6054;50.966;7.094;2023-09-07T08:46:14;4.15;;;3.63;;
11988;SDS011;6054;50.966;7.094;2023-09-07T08:48:45;5.55;;;2.80;;
11988;SDS011;6054;50.966;7.094;2023-09-07T08:51:13;3.58;;;3.28;;
11988;SDS011;6054;50.966;7.094;2023-09-07T08:53:42;5.15;;;3.40;;
11988;SDS011;6054;50.966;7.094;2023-09-07T08:56:11;3.45;;;3.13;;
11988;SDS011;6054;50.966;7.094;2023-09-07T08:58:39;3.78;;;3.38;;
11988;SDS011;6054;50.966;7.094;2023-09-07T09:01:06;3.63;;;2.97;;
11988;SDS011;6054;50.966;7.094;2023-09-07T09:03:35;4.30;;;3.08;;
11988;SDS011;6054;50.966;7.094;2023-09-07T09:06:03;5.15;;;3.28;;
11988;SDS011;6054;50.966;7.094;2023-09-07T09:08:40;3.17;;;2.95;;
11988;SDS011;6054;50.966;7.094;2023-09-07T09:11:07;3.80;;;2.95;;
11988;SDS011;6054;50.966;7.094;2023-09-07T09:13:35;3.63;;;3.33;;
11988;SDS011;6054;50.966;7.094;2023-09-07T09:16:02;3.30;;;3.00;;
11988;SDS011;6054;50.966;7.094;2023-09-07T09:18:29;3.55;;;3.20;;
11988;SDS011;6054;50.966;7.094;2023-09-07T09:20:57;3.13;;;2.88;;
11988;SDS011;6054;50.966;7.094;2023-09-07T09:23:25;6.90;;;3.35;;
11988;SDS011;6054;50.966;7.094;2023-09-07T09:25:56;3.50;;;3.20;;
11988;SDS011;6054;50.966;7.094;2023-09-07T09:28:23;3.47;;;3.05;;
11988;SDS011;6054;50.966;7.094;2023-09-07T09:30:51;3.85;;;3.08;;
11988;SDS011;6054;50.966;7.094;2023-09-07T09:33:19;3.40;;;2.55;;
11988;SDS011;6054;50.966;7.094;2023-09-07T09:35:46;5.18;;;3.10;;
11988;SDS011;6054;50.966;7.094;2023-09-07T09:38:15;3.30;;;2.92;;
11988;SDS011;6054;50.966;7.094;2023-09-07T09:40:42;3.70;;;3.33;;
11988;SDS011;6054;50.966;7.094;2023-09-07T09:43:09;4.28;;;3.00;;
11988;SDS011;6054;50.966;7.094;2023-09-07T09:45:38;3.45;;;3.05;;
11988;SDS011;6054;50.966;7.094;2023-09-07T09:48:05;4.63;;;3.20;;
11988;SDS011;6054;50.966;7.094;2023-09-07T09:50:32;3.25;;;3.00;;
11988;SDS011;6054;50.966;7.094;2023-09-07T09:53:02;3.70;;;3.50;;
11988;SDS011;6054;50.966;7.094;2023-09-07T09:55:33;4.28;;;3.40;;
11988;SDS011;6054;50.966;7.094;2023-09-07T09:58:00;5.10;;;3.45;;
11988;SDS011;6054;50.966;7.094;2023-09-07T10:00:27;3.50;;;3.20;;
11988;SDS011;6054;50.966;7.094;2023-09-07T10:02:57;3.60;;;3.10;;
11988;SDS011;6054;50.966;7.094;2023-09-07T10:05:27;3.30;;;3.00;;
11988;SDS011;6054;50.966;7.094;2023-09-07T10:07:59;7.22;;;3.20;;
11988;SDS011;6054;50.966;7.094;2023-09-07T10:10:32;3.22;;;2.97;;
11988;SDS011;6054;50.966;7.094;2023-09-07T10:13:01;3.25;;;2.95;;
11988;SDS011;6054;50.966;7.094;2023-09-07T10:15:28;4.63;;;2.72;;
11988;SDS011;6054;50.966;7.094;2023-09-07T10:18:03;3.58;;;2.90;;
11988;SDS011;6054;50.966;7.094;2023-09-07T10:20:34;3.92;;;3.10;;
11988;SDS011;6054;50.966;7.094;2023-09-07T10:23:13;4.55;;;3.13;;
11988;SDS011;6054;50.966;7.094;2023-09-07T10:25:41;4.25;;;3.22;;
11988;SDS011;6054;50.966;7.094;2023-09-07T10:28:17;6.38;;;4.10;;
11988;SDS011;6054;50.966;7.094;2023-09-07T10:30:57;4.03;;;3.33;;
11988;SDS011;6054;50.966;7.094;2023-09-07T10:33:25;3.40;;;3.10;;
11988;SDS011;6054;50.966;7.094;2023-09-07T10:35:51;4.43;;;3.25;;
11988;SDS011;6054;50.966;7.094;2023-09-07T10:38:18;5.50;;;3.13;;
11988;SDS011;6054;50.966;7.094;2023-09-07T10:40:46;6.05;;;3.60;;
11988;SDS011;6054;50.966;7.094;2023-09-07T10:43:13;3.47;;;3.03;;
11988;SDS011;6054;50.966;7.094;2023-09-07T10:45:43;3.30;;;3.05;;
11988;SDS011;6054;50.966;7.094;2023-09-07T10:48:11;4.68;;;3.30;;
11988;SDS011;6054;50.966;7.094;2023-09-07T10:50:44;4.72;;;3.03;;
11988;SDS011;6054;50.966;7.094;2023-09-07T10:53:12;4.25;;;3.45;;
11988;SDS011;6054;50.966;7.094;2023-09-07T10:55:40;3.10;;;2.80;;
11988;SDS011;6054;50.966;7.094;2023-09-07T10:58:09;2.90;;;2.70;;
11988;SDS011;6054;50.966;7.094;2023-09-07T11:00:36;3.28;;;3.08;;
11988;SDS011;6054;50.966;7.094;2023-09-07T11:03:07;3.45;;;3.05;;
11988;SDS011;6054;50.966;7.094;2023-09-07T11:05:34;3.55;;;3.03;;
11988;SDS011;6054;50.966;7.094;2023-09-07T11:08:03;4.72;;;3.60;;
11988;SDS011;6054;50.966;7.094;2023-09-07T11:10:31;3.28;;;3.08;;
11988;SDS011;6054;50.966;7.094;2023-09-07T11:13:01;3.58;;;3.00;;
11988;SDS011;6054;50.966;7.094;2023-09-07T11:15:31;3.22;;;3.03;;
11988;SDS011;6054;50.966;7.094;2023-09-07T11:18:03;4.47;;;3.58;;
11988;SDS011;6054;50.966;7.094;2023-09-07T11:20:31;3.40;;;3.20;;
11988;SDS011;6054;50.966;7.094;2023-09-07T11:22:58;8.00;;;3.30;;
11988;SDS011;6054;50.966;7.094;2023-09-07T11:25:25;3.42;;;3.22;;
11988;SDS011;6054;50.966;7.094;2023-09-07T11:27:52;5.03;;;3.40;;
11988;SDS011;6054;50.966;7.094;2023-09-07T11:30:20;5.43;;;3.10;;
11988;SDS011;6054;50.966;7.094;2023-09-07T11:32:48;5.32;;;3.20;;
11988;SDS011;6054;50.966;7.094;2023-09-07T11:35:15;3.75;;;3.45;;
11988;SDS011;6054;50.966;7.094;2023-09-07T11:37:42;6.90;;;3.25;;
11988;SDS011;6054;50.966;7.094;2023-09-07T11:40:09;3.60;;;3.30;;
11988;SDS011;6054;50.966;7.094;2023-09-07T11:42:37;3.67;;;3.38;;
11988;SDS011;6054;50.966;7.094;2023-09-07T11:45:05;5.28;;;3.00;;
11988;SDS011;6054;50.966;7.094;2023-09-07T11:47:34;3.65;;;3.35;;
11988;SDS011;6054;50.966;7.094;2023-09-07T11:50:03;3.38;;;3.08;;
11988;SDS011;6054;50.966;7.094;2023-09-07T11:52:30;4.13;;;3.08;;
11988;SDS011;6054;50.966;7.094;2023-09-07T11:54:57;3.45;;;3.15;;
11988;SDS011;6054;50.966;7.094;2023-09-07T11:57:23;5.55;;;3.30;;
11988;SDS011;6054;50.966;7.094;2023-09-07T11:59:50;5.03;;;3.40;;
11988;SDS011;6054;50.966;7.094;2023-09-07T12:02:17;3.63;;;3.42;;
11988;SDS011;6054;50.966;7.094;2023-09-07T12:04:46;3.58;;;3.38;;
11988;SDS011;6054;50.966;7.094;2023-09-07T12:07:14;4.32;;;3.58;;
11988;SDS011;6054;50.966;7.094;2023-09-07T12:09:41;3.58;;;3.35;;
11988;SDS011;6054;50.966;7.094;2023-09-07T12:12:07;3.65;;;3.30;;
11988;SDS011;6054;50.966;7.094;2023-09-07T12:14:35;5.93;;;3.00;;
11988;SDS011;6054;50.966;7.094;2023-09-07T12:17:02;3.80;;;3.28;;
11988;SDS011;6054;50.966;7.094;2023-09-07T12:19:29;5.93;;;3.67;;
11988;SDS011;6054;50.966;7.094;2023-09-07T12:21:56;4.75;;;3.38;;
11988;SDS011;6054;50.966;7.094;2023-09-07T12:24:24;3.53;;;3.22;;
11988;SDS011;6054;50.966;7.094;2023-09-07T12:26:51;3.70;;;3.25;;
11988;SDS011;6054;50.966;7.094;2023-09-07T12:29:18;3.47;;;3.20;;
11988;SDS011;6054;50.966;7.094;2023-09-07T12:31:45;3.97;;;3.35;;
11988;SDS011;6054;50.966;7.094;2023-09-07T12:34:17;3.53;;;3.30;;
11988;SDS011;6054;50.966;7.094;2023-09-07T12:36:45;4.18;;;3.65;;
11988;SDS011;6054;50.966;7.094;2023-09-07T12:39:11;4.10;;;3.67;;
11988;SDS011;6054;50.966;7.094;2023-09-07T12:41:39;3.97;;;3.60;;
11988;SDS011;6054;50.966;7.094;2023-09-07T12:44:06;3.67;;;3.38;;
11988;SDS011;6054;50.966;7.094;2023-09-07T12:46:34;3.88;;;3.60;;
11988;SDS011;6054;50.966;7.094;2023-09-07T12:49:02;3.70;;;3.40;;
11988;SDS011;6054;50.966;7.094;2023-09-07T12:51:29;3.60;;;3.30;;
11988;SDS011;6054;50.966;7.094;2023-09-07T12:53:56;3.50;;;3.20;;
11988;SDS011;6054;50.966;7.094;2023-09-07T12:56:22;3.70;;;3.38;;
11988;SDS011;6054;50.966;7.094;2023-09-07T12:58:50;3.35;;;3.15;;
11988;SDS011;6054;50.966;7.094;2023-09-07T13:01:18;4.05;;;3.42;;
11988;SDS011;6054;50.966;7.094;2023-09-07T13:03:44;3.53;;;3.33;;
11988;SDS011;6054;50.966;7.094;2023-09-07T13:06:11;4.25;;;3.42;;
11988;SDS011;6054;50.966;7.094;2023-09-07T13:08:38;4.35;;;3.72;;
11988;SDS011;6054;50.966;7.094;2023-09-07T13:11:05;5.25;;;3.42;;
11988;SDS011;6054;50.966;7.094;2023-09-07T13:13:32;4.05;;;3.58;;
11988;SDS011;6054;50.966;7.094;2023-09-07T13:16:00;3.75;;;3.38;;
11988;SDS011;6054;50.966;7.094;2023-09-07T13:18:27;3.70;;;3.38;;
11988;SDS011;6054;50.966;7.094;2023-09-07T13:20:53;6.22;;;3.45;;
11988;SDS011;6054;50.966;7.094;2023-09-07T13:23:24;3.40;;;3.20;;
11988;SDS011;6054;50.966;7.094;2023-09-07T13:25:51;4.03;;;3.63;;
11988;SDS011;6054;50.966;7.094;2023-09-07T13:28:18;3.42;;;3.22;;
11988;SDS011;6054;50.966;7.094;2023-09-07T13:30:44;6.25;;;4.00;;
11988;SDS011;6054;50.966;7.094;2023-09-07T13:33:12;3.47;;;3.17;;
11988;SDS011;6054;50.966;7.094;2023-09-07T13:35:39;5.18;;;3.42;;
11988;SDS011;6054;50.966;7.094;2023-09-07T13:38:06;3.63;;;3.38;;
11988;SDS011;6054;50.966;7.094;2023-09-07T13:40:33;3.70;;;3.50;;
11988;SDS011;6054;50.966;7.094;2023-09-07T13:42:59;3.92;;;3.63;;
11988;SDS011;6054;50.966;7.094;2023-09-07T13:45:26;3.60;;;3.40;;
11988;SDS011;6054;50.966;7.094;2023-09-07T13:47:54;3.80;;;3.50;;
11988;SDS011;6054;50.966;7.094;2023-09-07T13:50:22;4.05;;;3.75;;
11988;SDS011;6054;50.966;7.094;2023-09-07T13:52:49;4.80;;;3.38;;
11988;SDS011;6054;50.966;7.094;2023-09-07T13:55:16;4.25;;;3.65;;
11988;SDS011;6054;50.966;7.094;2023-09-07T13:57:42;3.67;;;3.40;;
11988;SDS011;6054;50.966;7.094;2023-09-07T14:00:09;3.75;;;3.45;;
11988;SDS011;6054;50.966;7.094;2023-09-07T14:02:36;5.50;;;3.38;;
11988;SDS011;6054;50.966;7.094;2023-09-07T14:05:03;4.90;;;3.38;;
11988;SDS011;6054;50.966;7.094;2023-09-07T14:07:32;4.20;;;3.90;;
11988;SDS011;6054;50.966;7.094;2023-09-07T14:09:59;7.85;;;3.45;;
11988;SDS011;6054;50.966;7.094;2023-09-07T14:12:25;5.53;;;3.60;;
11988;SDS011;6054;50.966;7.094;2023-09-07T14:14:52;5.45;;;3.47;;
11988;SDS011;6054;50.966;7.094;2023-09-07T14:17:19;3.75;;;3.30;;
11988;SDS011;6054;50.966;7.094;2023-09-07T14:19:45;3.95;;;3.65;;
11988;SDS011;6054;50.966;7.094;2023-09-07T14:22:12;3.50;;;3.17;;
11988;SDS011;6054;50.966;7.094;2023-09-07T14:24:40;3.22;;;3.00;;
11988;SDS011;6054;50.966;7.094;2023-09-07T14:27:07;6.00;;;3.65;;
11988;SDS011;6054;50.966;7.094;2023-09-07T14:29:34;4.60;;;3.10;;
11988;SDS011;6054;50.966;7.094;2023-09-07T14:32:01;3.53;;;3.22;;
11988;SDS011;6054;50.966;7.094;2023-09-07T14:34:27;3.72;;;3.30;;
11988;SDS011;6054;50.966;7.094;2023-09-07T14:36:54;4.32;;;3.13;;
11988;SDS011;6054;50.966;7.094;2023-09-07T14:39:21;3.28;;;3.08;;
11988;SDS011;6054;50.966;7.094;2023-09-07T14:41:50;3.40;;;3.10;;
11988;SDS011;6054;50.966;7.094;2023-09-07T14:44:18;5.63;;;3.30;;
11988;SDS011;6054;50.966;7.094;2023-09-07T14:46:45;3.67;;;3.38;;
11988;SDS011;6054;50.966;7.094;2023-09-07T14:49:14;3.42;;;2.95;;
11988;SDS011;6054;50.966;7.094;2023-09-07T14:51:42;3.40;;;3.20;;
11988;SDS011;6054;50.966;7.094;2023-09-07T14:54:09;3.45;;;3.15;;
11988;SDS011;6054;50.966;7.094;2023-09-07T14:56:36;3.13;;;2.90;;
11988;SDS011;6054;50.966;7.094;2023-09-07T14:59:05;5.20;;;3.63;;
11988;SDS011;6054;50.966;7.094;2023-09-07T15:01:32;3.58;;;3.38;;